INFORMACIÓN METAR y TAF
METAR FOR SCRM
ADDS - METARS form results

(0039 UTC 07 June 2020)
Data provider http://aviationweather.gov/metar/data/
 
METAR text: SCRM 070000Z 34014KT 9999 SCT030 00/M00 Q0986 NOSIG
Conditions at: SCRM (TENIENTE R MARSH, CL) observed 0000 UTC 07 June 2020
Temperature: 0.0°C (32°F)
Dewpoint: 0.0°C (32°F) [RH = 100%]
Pressure (altimeter): 29.11 inches Hg (986.0 mb)
Winds: from the NNW (340 degrees) at 16 MPH (14 knots; 7.2 m/s)
Visibility: 6 or more miles (10+ km)
Ceiling: at least 12,000 feet AGL
Clouds: scattered clouds at 3000 feet AGL
Weather: no significant weather observed at this time

 MAPA DE AEROPUERTO

 INFORMACIÓN DE PISTA
Pista 11 Longitud 4238 ft Ancho 125 ft
Elevación 142 ft Umbral desplazado 0 ft Rumbo de pista 122
Pista 29 Longitud 4238 ft Ancho 125 ft
Elevación 127 ft Umbral desplazado 0 ft Rumbo de pista 302

 FRECUANCIAS DEL AEROPUERTO
Tipo APP Nombre MARSH APP Frecuencia 118.1 MHZ
Tipo TWR Nombre TWR Frecuencia 118.1 MHZ

 RADIO AYUDAS DEL AEROPUERTO
Tipo VOR-DME Nombre Isla Rey Jorge Frecuencia 113300 KHZ
Tipo NDB Nombre Isla Rey Jorge Frecuencia 360 KHZ